Grand Canyon, AZ

5:30 PM MST on February 27, 2017 (GMT -0700)
Grand Canyon National Park | | Change Station

Elev 6608 ft 35.95 °N, 112.15 °W | Updated 15 minutes ago

Light Snow
Light Snow Mist
32 °F
Feels Like 23 °F
N
12
Wind Variable Wind from SSW
Gusts 21 mph

Today
High -- | Low -- °F
--% Chance of Precip.
Yesterday
High -- | Low -- °F
Precip. -- in
Pressure 29.83 in
Visibility 0.8 miles
Clouds Overcast 500 ft
Windchill 23 °F
Dew Point 32 °F
Humidity 100%
Rainfall 0.12 in
Snow Depth Not available.
7:00 AM 6:22 PM
New Moon, 2% visible
SPECI KGCN 280015Z 21010G18KT 3/4SM -SN BR OVC005 00/00 A2983 RMK AO2 P0001 T00000000
Pressure 29.83 in
Visibility 0.8 miles
Clouds Overcast 500 ft
Windchill 23 °F
Dew Point 32 °F
Humidity 100%
Rainfall 0.12 in
Snow Depth Not available.
7:00 AM 6:22 PM
New Moon, 2% visible
SPECI KGCN 280015Z 21010G18KT 3/4SM -SN BR OVC005 00/00 A2983 RMK AO2 P0001 T00000000

Get Your Daily Forecast Email!

Thanks for signing up!

Be on the lookout for a verification email in your inbox.

You'll start receiving the daily forecast at 8 AM.

×

10-Day Weather Forecast

Almanac

Astronomy

Feb. 27, 2017 Rise Set
Actual Time
Civil Twilight
Nautical Twilight
Astronomical Twilight
Moon
Length of Visible Light
Length of Day
Tomorrow will be .
, % of the Moon is Illuminated

Today's Extremes

State Highs State Lows

Community

WunderPhotos

Upload Photos

1,962,540 photos uploaded!

WunderBlog® & News

Nearby

Air Quality

  Air Quality AQ Index Pollutant
Not available.

Snow Depth

Station Depth Elevation

Earthquake Activity

City Distance Mag. Time & Date
Minimum magnitude displayed is 2.5.

Coastal Water Temperatures

Place Temperature

Stations

Nearby Weather Stations

Station Location Temp. Windchill Dew Point Humidity Wind Precip. Elev Updated Type
                   

Watches & Warnings

There are currently no watches in effect.